Time;durP1;ratioP1;P1;durP2;ratioP2;P2;SDS_P1;SDS_P2;PMS_P1;PMS_P2;Temp;Humidity;BMP_temperature;BMP_pressure;BME280_temperature;BME280_humidity;BME280_pressure;Samples;Min_cycle;Max_cycle;Signal;HPM_P1;HPM_P2
2023/09/10 00:02:23;;;;;;;10.70;9.80;;;;;;;19.70;100.00;100371.72;4966670;28;20228;-80
2023/09/10 00:04:49;;;;;;;11.30;10.40;;;;;;;19.67;100.00;100376.22;4963641;28;20192;-79
2023/09/10 00:07:14;;;;;;;9.90;9.20;;;;;;;19.61;100.00;100372.97;4965664;28;20205;-79
2023/09/10 00:09:39;;;;;;;10.63;9.73;;;;;;;19.57;100.00;100371.41;4958641;28;20201;-81
2023/09/10 00:12:05;;;;;;;9.57;8.87;;;;;;;19.57;100.00;100373.19;4956839;28;20306;-80
2023/09/10 00:14:31;;;;;;;9.97;9.27;;;;;;;19.55;100.00;100369.78;4966404;28;20201;-81
2023/09/10 00:16:56;;;;;;;9.77;9.07;;;;;;;19.54;100.00;100370.69;4970858;28;20187;-79
2023/09/10 00:19:21;;;;;;;10.33;9.53;;;;;;;19.52;100.00;100369.91;4978364;28;20185;-80
2023/09/10 00:21:46;;;;;;;9.70;8.97;;;;;;;19.49;100.00;100371.75;4966732;28;20641;-79
2023/09/10 00:24:13;;;;;;;9.83;9.13;;;;;;;19.47;100.00;100370.97;4967705;28;20185;-80
2023/09/10 00:26:38;;;;;;;10.20;9.40;;;;;;;19.45;100.00;100378.06;4962519;28;20710;-80
2023/09/10 00:29:04;;;;;;;10.67;9.80;;;;;;;19.45;100.00;100372.81;4970888;28;20225;-79
2023/09/10 00:31:30;;;;;;;10.10;9.30;;;;;;;19.45;100.00;100377.22;4970121;28;20810;-79
2023/09/10 00:33:55;;;;;;;9.97;9.17;;;;;;;19.45;100.00;100377.22;4959802;28;20226;-81
2023/09/10 00:36:20;;;;;;;9.83;9.13;;;;;;;19.42;100.00;100378.22;4964043;28;20195;-81
2023/09/10 00:38:45;;;;;;;9.13;8.43;;;;;;;19.42;100.00;100379.97;4962911;28;20186;-80
2023/09/10 00:41:11;;;;;;;8.83;8.13;;;;;;;19.39;100.00;100377.47;4964810;28;20288;-81
2023/09/10 00:43:36;;;;;;;9.00;8.40;;;;;;;19.36;100.00;100378.47;4968973;28;20264;-81
2023/09/10 00:46:02;;;;;;;8.63;8.03;;;;;;;19.33;100.00;100375.97;4960950;28;20902;-80
2023/09/10 00:48:28;;;;;;;9.30;8.57;;;;;;;19.31;100.00;100378.69;4972748;28;20187;-79
2023/09/10 00:50:54;;;;;;;9.63;8.90;;;;;;;19.30;100.00;100379.59;4969058;28;20187;-79
2023/09/10 00:53:21;;;;;;;9.87;9.07;;;;;;;19.29;100.00;100372.66;4964939;28;20727;-79
2023/09/10 00:55:47;;;;;;;10.23;9.43;;;;;;;19.28;100.00;100370.09;4968849;28;20852;-80
2023/09/10 00:58:13;;;;;;;10.60;9.80;;;;;;;19.25;100.00;100378.94;4966784;28;20187;-81
2023/09/10 01:00:42;;;;;;;9.90;9.20;;;;;;;19.22;100.00;100370.34;4971576;28;20961;-80
2023/09/10 01:03:08;;;;;;;9.43;8.83;;;;;;;19.19;100.00;100372.19;4970196;28;20680;-81
2023/09/10 01:05:35;;;;;;;9.43;8.73;;;;;;;19.16;100.00;100366.22;4963162;28;20193;-80
2023/09/10 01:08:03;;;;;;;10.07;9.33;;;;;;;19.13;100.00;100369.00;4969475;28;20188;-80
2023/09/10 01:10:41;;;;;;;9.50;8.80;;;;;;;19.10;100.00;100369.97;4979117;28;20220;-81
2023/09/10 01:13:19;;;;;;;8.70;8.10;;;;;;;19.08;100.00;100369.19;4975411;28;20220;-81
2023/09/10 01:16:01;;;;;;;9.03;8.33;;;;;;;19.05;100.00;100371.94;4963487;28;20226;-81
2023/09/10 01:18:35;;;;;;;9.10;8.40;;;;;;;19.00;100.00;100366.03;4968169;28;20247;-80
2023/09/10 01:21:22;;;;;;;9.13;8.43;;;;;;;18.97;100.00;100377.50;4956532;28;20195;-80
2023/09/10 01:23:53;;;;;;;9.10;8.37;;;;;;;18.94;100.00;100361.91;4969001;28;20203;-80
2023/09/10 01:26:18;;;;;;;9.57;8.77;;;;;;;18.94;100.00;100368.91;4968206;28;20198;-81
2023/09/10 01:28:44;;;;;;;9.03;8.33;;;;;;;18.92;100.00;100368.09;4964925;28;20198;-79
2023/09/10 01:31:09;;;;;;;10.47;9.63;;;;;;;18.88;100.00;100368.22;4961213;28;20224;-80
2023/09/10 01:33:40;;;;;;;11.50;10.40;;;;;;;18.85;100.00;100357.88;4963485;28;21174;-81
2023/09/10 01:36:14;;;;;;;10.60;9.70;;;;;;;18.83;100.00;100366.72;4971723;28;20223;-80
2023/09/10 01:39:02;;;;;;;9.90;9.23;;;;;;;18.79;100.00;100362.53;4967543;28;20224;-80
2023/09/10 01:41:31;;;;;;;9.27;8.57;;;;;;;18.77;100.00;100359.97;4964924;28;20286;-79
2023/09/10 01:43:57;;;;;;;9.23;8.43;;;;;;;18.74;100.00;100362.72;4966196;28;20190;-79
2023/09/10 01:46:24;;;;;;;9.83;8.97;;;;;;;18.72;100.00;100362.78;4959576;28;20194;-80
2023/09/10 01:48:50;;;;;;;8.80;8.10;;;;;;;18.69;100.00;100360.28;4961505;28;20926;-79
2023/09/10 01:51:17;;;;;;;9.70;9.00;;;;;;;18.66;100.00;100363.03;4968440;28;20225;-80
2023/09/10 01:53:42;;;;;;;9.23;8.53;;;;;;;18.62;100.00;100366.69;4968394;28;20610;-82
2023/09/10 01:56:07;;;;;;;8.93;8.33;;;;;;;18.57;100.00;100364.28;4959715;28;20200;-79
2023/09/10 01:58:33;;;;;;;8.43;7.83;;;;;;;18.55;100.00;100367.88;4962815;28;20193;-80
2023/09/10 02:00:58;;;;;;;8.67;8.07;;;;;;;18.53;100.00;100364.47;4970367;28;21116;-80
2023/09/10 02:03:23;;;;;;;9.37;8.63;;;;;;;18.50;100.00;100354.97;4967995;28;20203;-80
2023/09/10 02:05:49;;;;;;;10.67;9.87;;;;;;;18.47;100.00;100360.34;4966261;28;20255;-80
2023/09/10 02:08:14;;;;;;;9.57;8.87;;;;;;;18.46;100.00;100363.00;4966441;28;20233;-81
2023/09/10 02:10:40;;;;;;;10.10;9.20;;;;;;;18.43;100.00;100359.63;4969192;28;20893;-80
2023/09/10 02:13:05;;;;;;;9.73;8.80;;;;;;;18.43;100.00;100357.00;4963953;28;20232;-81
2023/09/10 02:15:30;;;;;;;9.80;9.10;;;;;;;18.41;100.00;100358.81;4970845;28;20645;-80
2023/09/10 02:17:56;;;;;;;9.10;8.40;;;;;;;18.38;100.00;100361.56;4964915;28;20203;-80
2023/09/10 02:20:22;;;;;;;8.73;8.13;;;;;;;18.37;100.00;100364.25;4972200;28;20674;-81
2023/09/10 02:22:47;;;;;;;8.50;7.90;;;;;;;18.35;100.00;100358.22;4972829;28;20844;-79
2023/09/10 02:25:12;;;;;;;8.73;8.13;;;;;;;18.33;100.00;100363.50;4960535;28;20556;-79
2023/09/10 02:27:38;;;;;;;8.30;7.70;;;;;;;18.31;100.00;100365.31;4971163;28;20197;-79
2023/09/10 02:30:04;;;;;;;8.17;7.67;;;;;;;18.28;100.00;100363.69;4962508;28;20191;-80
2023/09/10 02:32:31;;;;;;;8.93;8.23;;;;;;;18.26;100.00;100359.44;4968911;28;20226;-81
2023/09/10 02:34:56;;;;;;;8.53;7.93;;;;;;;18.25;100.00;100363.81;4963613;28;20236;-79
2023/09/10 02:37:22;;;;;;;9.57;8.67;;;;;;;18.27;100.00;100366.38;4966168;28;20281;-80
2023/09/10 02:39:47;;;;;;;10.00;9.20;;;;;;;18.27;100.00;100358.53;4969722;28;20394;-79
2023/09/10 02:42:12;;;;;;;9.70;8.90;;;;;;;18.25;100.00;100355.94;4966434;28;20569;-79
2023/09/10 02:44:38;;;;;;;9.73;8.93;;;;;;;18.23;100.00;100352.53;4965734;28;20201;-79
2023/09/10 02:47:03;;;;;;;8.90;8.30;;;;;;;18.22;100.00;100347.38;4964430;28;20198;-79
2023/09/10 02:49:28;;;;;;;9.93;8.93;;;;;;;18.20;100.00;100347.44;4968571;28;20198;-79
2023/09/10 02:51:54;;;;;;;9.47;8.77;;;;;;;18.19;100.00;100357.97;4963060;28;20227;-79
2023/09/10 02:54:20;;;;;;;8.87;8.27;;;;;;;18.16;100.00;100364.19;4963908;28;20967;-80
2023/09/10 02:56:45;;;;;;;9.37;8.57;;;;;;;18.12;100.00;100362.59;4962185;28;20222;-79
2023/09/10 02:59:31;;;;;;;9.63;8.83;;;;;;;18.08;100.00;100355.75;4967772;28;20186;-79
2023/09/10 03:01:56;;;;;;;9.97;9.17;;;;;;;18.06;100.00;100360.22;4963327;28;20223;-78
2023/09/10 03:04:21;;;;;;;9.60;8.90;;;;;;;18.04;100.00;100359.44;4962226;28;20374;-79
2023/09/10 03:06:49;;;;;;;8.93;8.30;;;;;;;17.98;100.00;100358.75;4967273;28;20198;-79
2023/09/10 03:09:16;;;;;;;9.43;8.73;;;;;;;17.93;100.00;100359.81;4973469;28;20256;-80
2023/09/10 03:11:43;;;;;;;8.53;7.93;;;;;;;17.89;100.00;100358.22;4977871;28;20244;-79
2023/09/10 03:14:09;;;;;;;7.77;7.27;;;;;;;17.85;100.00;100357.47;4966486;28;20187;-79
2023/09/10 03:16:36;;;;;;;7.70;7.20;;;;;;;17.80;100.00;100357.66;4967632;28;20233;-80
2023/09/10 03:19:02;;;;;;;8.30;7.70;;;;;;;17.78;100.00;100361.22;4967784;28;20209;-79
2023/09/10 03:21:28;;;;;;;8.30;7.70;;;;;;;17.76;100.00;100366.53;4975847;28;20697;-79
2023/09/10 03:23:55;;;;;;;7.83;7.33;;;;;;;17.74;100.00;100362.28;4965191;28;20194;-80
2023/09/10 03:26:20;;;;;;;7.87;7.37;;;;;;;17.72;100.00;100369.31;4966430;28;20186;-81
2023/09/10 03:28:46;;;;;;;8.57;7.97;;;;;;;17.70;100.00;100365.91;4967637;28;20284;-81
2023/09/10 03:31:11;;;;;;;7.80;7.30;;;;;;;17.71;100.00;100367.63;4960902;28;20290;-80
2023/09/10 03:33:36;;;;;;;8.67;8.07;;;;;;;17.70;100.00;100369.38;4967039;28;20329;-79
2023/09/10 03:36:02;;;;;;;9.10;8.40;;;;;;;17.70;100.00;100364.13;4968036;28;20236;-78
2023/09/10 03:38:28;;;;;;;8.80;8.00;;;;;;;17.67;100.00;100364.28;4964436;28;20244;-79
2023/09/10 03:40:54;;;;;;;8.63;7.93;;;;;;;17.64;100.00;100365.22;4969469;28;20183;-80
2023/09/10 03:43:19;;;;;;;8.40;7.80;;;;;;;17.61;100.00;100373.22;4962656;28;20200;-80
2023/09/10 03:45:44;;;;;;;8.50;7.90;;;;;;;17.58;100.00;100360.22;4961925;28;20636;-79
2023/09/10 03:48:10;;;;;;;8.80;8.10;;;;;;;17.57;100.00;100370.75;4959613;28;20184;-79
2023/09/10 03:50:35;;;;;;;9.43;8.57;;;;;;;17.55;100.00;100369.94;4963600;28;20197;-80
2023/09/10 03:53:00;;;;;;;8.67;7.97;;;;;;;17.52;100.00;100368.28;4966240;28;20306;-80
2023/09/10 03:55:26;;;;;;;8.93;8.33;;;;;;;17.50;100.00;100376.22;4967712;28;21043;-79
2023/09/10 03:57:51;;;;;;;8.40;7.80;;;;;;;17.47;100.00;100371.09;4962581;28;20177;-81
2023/09/10 04:00:18;;;;;;;8.93;8.33;;;;;;;17.43;100.00;100368.66;4962729;28;20270;-80
2023/09/10 04:02:43;;;;;;;8.87;8.17;;;;;;;17.42;100.00;100373.00;4961233;28;22695;-79
2023/09/10 04:05:11;;;;;;;8.77;8.07;;;;;;;17.40;100.00;100379.22;4959200;28;20190;-82
2023/09/10 04:07:37;;;;;;;9.33;8.63;;;;;;;17.37;100.00;100372.34;4968948;28;20287;-79
2023/09/10 04:10:02;;;;;;;9.77;8.97;;;;;;;17.32;100.00;100375.09;4961399;28;20764;-78
2023/09/10 04:12:28;;;;;;;8.43;7.83;;;;;;;17.30;100.00;100368.22;4962649;28;20221;-80
2023/09/10 04:14:53;;;;;;;8.33;7.83;;;;;;;17.27;100.00;100379.66;4961838;28;20267;-79
2023/09/10 04:17:18;;;;;;;8.63;7.93;;;;;;;17.27;100.00;100378.78;4965588;28;20190;-79
2023/09/10 04:19:44;;;;;;;8.77;8.13;;;;;;;17.23;100.00;100383.28;4972080;28;20696;-79
2023/09/10 04:22:09;;;;;;;9.03;8.43;;;;;;;17.22;100.00;100381.56;4960836;28;20213;-79
2023/09/10 04:24:35;;;;;;;8.70;8.10;;;;;;;17.19;100.00;100385.16;4962632;28;20245;-79
2023/09/10 04:27:00;;;;;;;9.50;8.80;;;;;;;17.18;100.00;100383.44;4963138;28;20661;-81
2023/09/10 04:29:26;;;;;;;8.07;7.37;;;;;;;17.15;100.00;100394.00;4973110;28;20205;-84
2023/09/10 04:31:51;;;;;;;9.20;8.50;;;;;;;17.14;100.00;100394.91;4971783;28;20256;-80
2023/09/10 04:34:17;;;;;;;9.70;8.80;;;;;;;17.12;100.00;100393.25;4967702;28;20735;-83
2023/09/10 04:36:42;;;;;;;8.87;8.17;;;;;;;17.09;100.00;100395.97;4975200;28;20212;-83
2023/09/10 04:39:08;;;;;;;8.57;7.97;;;;;;;17.06;100.00;100384.72;4973993;28;20194;-79
2023/09/10 04:41:35;;;;;;;8.10;7.60;;;;;;;17.04;100.00;100396.16;4977082;28;20307;-83
2023/09/10 04:44:01;;;;;;;8.53;7.87;;;;;;;17.02;100.00;100397.94;4973655;28;20281;-83
2023/09/10 04:46:27;;;;;;;8.13;7.53;;;;;;;16.99;100.00;100404.16;4974403;28;20191;-83
2023/09/10 04:48:53;;;;;;;8.03;7.47;;;;;;;16.98;100.00;100401.56;4971152;28;20186;-84
2023/09/10 04:51:18;;;;;;;8.57;7.97;;;;;;;16.98;100.00;100404.19;4980431;28;20220;-85
2023/09/10 04:53:47;;;;;;;9.00;8.30;;;;;;;16.96;100.00;100404.25;4968677;28;20219;-84
2023/09/10 04:56:12;;;;;;;8.10;7.60;;;;;;;16.96;100.00;100412.09;4974784;28;20266;-82
2023/09/10 04:58:37;;;;;;;8.40;7.80;;;;;;;16.95;100.00;100410.38;4983689;28;20209;-84
2023/09/10 05:01:03;;;;;;;8.67;7.90;;;;;;;16.95;100.00;100412.13;4978526;28;20237;-85
2023/09/10 05:03:29;;;;;;;8.33;7.73;;;;;;;16.96;100.00;100411.22;4989184;28;20694;-83
2023/09/10 05:06:02;;;;;;;8.20;7.60;;;;;;;16.94;100.00;100411.25;4984333;28;20178;-84
2023/09/10 05:08:28;;;;;;;8.57;7.87;;;;;;;16.95;100.00;100410.38;4973253;28;20237;-85
2023/09/10 05:10:55;;;;;;;9.07;8.47;;;;;;;16.95;100.00;100412.13;4972648;28;20187;-82
2023/09/10 05:13:20;;;;;;;8.77;8.17;;;;;;;16.96;100.00;100413.84;4987782;28;20198;-81
2023/09/10 05:15:47;;;;;;;7.77;7.27;;;;;;;16.98;100.00;100412.91;4976241;28;20555;-83
2023/09/10 05:18:12;;;;;;;7.77;7.23;;;;;;;17.01;100.00;100419.78;4976894;28;20183;-81
2023/09/10 05:20:37;;;;;;;8.47;7.87;;;;;;;17.03;100.00;100413.56;4970888;28;20208;-85
2023/09/10 05:23:03;;;;;;;8.77;8.07;;;;;;;17.08;100.00;100416.06;4990695;28;20196;-83
2023/09/10 05:25:28;;;;;;;8.07;7.37;;;;;;;17.11;100.00;100415.94;4973333;28;20198;-83
2023/09/10 05:27:54;;;;;;;7.80;7.20;;;;;;;17.14;100.00;100425.44;4976820;28;20218;-83
2023/09/10 05:30:19;;;;;;;8.60;8.00;;;;;;;17.18;100.00;100421.81;4969733;28;20209;-84
2023/09/10 05:32:44;;;;;;;7.87;7.07;;;;;;;17.21;100.00;100417.34;4965691;28;20300;-85
2023/09/10 05:35:10;;;;;;;7.90;7.30;;;;;;;17.27;100.00;100415.41;4972153;28;20230;-85
2023/09/10 05:37:35;;;;;;;8.30;7.60;;;;;;;17.31;100.00;100425.72;4966165;28;20189;-87
2023/09/10 05:40:02;;;;;;;8.07;7.50;;;;;;;17.35;100.00;100429.91;4982223;28;20294;-85
2023/09/10 05:42:28;;;;;;;8.33;7.73;;;;;;;17.40;100.00;100419.28;4971891;28;20673;-87
2023/09/10 05:44:53;;;;;;;7.10;6.60;;;;;;;17.49;100.00;100431.19;4977435;28;20209;-85
2023/09/10 05:47:20;;;;;;;7.17;6.67;;;;;;;17.60;100.00;100428.19;4975373;28;20213;-85
2023/09/10 05:49:48;;;;;;;6.60;6.10;;;;;;;17.74;100.00;100431.16;4978021;28;20192;-85
2023/09/10 05:52:14;;;;;;;6.40;5.90;;;;;;;17.88;100.00;100427.19;4976815;28;20221;-83
2023/09/10 05:54:39;;;;;;;7.23;6.70;;;;;;;17.98;100.00;100434.69;4980777;28;20235;-82
2023/09/10 05:57:04;;;;;;;6.27;5.77;;;;;;;18.06;100.00;100430.94;4984154;28;20185;-82
2023/09/10 05:59:30;;;;;;;6.93;6.33;;;;;;;18.13;100.00;100433.25;4976678;28;20188;-83
2023/09/10 06:01:55;;;;;;;6.93;6.43;;;;;;;18.21;100.00;100434.72;4964283;28;20216;-82
2023/09/10 06:04:20;;;;;;;7.70;6.87;;;;;;;18.31;100.00;100443.91;4973703;28;20187;-83
2023/09/10 06:06:46;;;;;;;7.80;7.17;;;;;;;18.41;100.00;100445.28;4982250;28;20186;-83
2023/09/10 06:09:11;;;;;;;9.20;8.40;;;;;;;18.52;100.00;100439.63;4982940;28;20197;-83
2023/09/10 06:11:36;;;;;;;9.00;8.20;;;;;;;18.59;100.00;100446.31;4977743;28;20214;-82
2023/09/10 06:14:02;;;;;;;9.60;8.80;;;;;;;18.66;100.00;100446.06;4980431;28;20198;-82
2023/09/10 06:16:28;;;;;;;9.60;8.87;;;;;;;18.73;100.00;100451.00;4977634;28;20176;-81
2023/09/10 06:18:53;;;;;;;9.80;9.00;;;;;;;18.82;100.00;100451.53;4980699;28;20185;-82
2023/09/10 06:21:18;;;;;;;10.80;9.90;;;;;;;18.86;100.00;100445.25;4972612;28;20203;-81
2023/09/10 06:23:44;;;;;;;10.77;9.57;;;;;;;18.90;100.00;100454.72;4984275;28;20666;-83
2023/09/10 06:26:09;;;;;;;9.13;8.43;;;;;;;18.96;100.00;100453.63;4979750;28;20285;-84
2023/09/10 06:28:35;;;;;;;10.33;9.53;;;;;;;19.00;100.00;100450.81;4984713;28;20239;-85
2023/09/10 06:31:00;;;;;;;9.80;9.10;;;;;;;19.09;100.00;100459.22;4986365;28;20617;-83
2023/09/10 06:33:26;;;;;;;9.97;9.17;;;;;;;19.23;100.00;100466.50;4979636;28;20192;-81
2023/09/10 06:35:51;;;;;;;9.83;8.90;;;;;;;19.39;100.00;100462.31;4979605;28;20247;-82
2023/09/10 06:38:17;;;;;;;9.43;8.77;;;;;;;19.55;100.00;100467.75;4974880;28;20226;-81
2023/09/10 06:40:43;;;;;;;9.33;8.63;;;;;;;19.65;100.00;100468.19;4981615;28;20209;-82
2023/09/10 06:43:09;;;;;;;9.67;8.87;;;;;;;19.75;100.00;100461.59;4986524;28;20205;-82
2023/09/10 06:45:35;;;;;;;9.80;9.00;;;;;;;19.88;100.00;100469.00;4979308;28;20200;-82
2023/09/10 06:48:00;;;;;;;9.43;8.63;;;;;;;20.12;100.00;100479.28;4973728;28;20186;-82
2023/09/10 06:50:25;;;;;;;9.70;9.00;;;;;;;20.44;100.00;100475.16;4988410;28;20182;-81
2023/09/10 06:52:51;;;;;;;8.90;8.20;;;;;;;20.76;100.00;100469.31;4976164;28;20635;-83
2023/09/10 06:55:16;;;;;;;8.57;7.80;;;;;;;21.10;100.00;100476.38;4990135;28;20624;-81
2023/09/10 06:57:42;;;;;;;9.50;8.70;;;;;;;21.49;100.00;100477.06;4982454;28;20292;-82
2023/09/10 07:00:08;;;;;;;8.70;8.00;;;;;;;21.85;100.00;100481.38;4973566;28;20189;-83
2023/09/10 07:02:33;;;;;;;8.57;7.87;;;;;;;22.25;100.00;100485.41;4966158;28;20213;-85
2023/09/10 07:04:58;;;;;;;8.67;7.90;;;;;;;22.63;100.00;100490.38;4981975;28;20193;-84
2023/09/10 07:07:24;;;;;;;8.83;7.93;;;;;;;22.98;100.00;100487.50;4979322;28;20195;-87
2023/09/10 07:09:49;;;;;;;7.73;7.13;;;;;;;23.24;100.00;100482.50;4980159;28;20186;-83
2023/09/10 07:12:14;;;;;;;7.73;7.13;;;;;;;23.55;100.00;100489.47;4977780;28;20230;-83
2023/09/10 07:14:40;;;;;;;8.07;7.43;;;;;;;23.77;100.00;100495.25;4967475;28;20246;-83
2023/09/10 07:17:05;;;;;;;8.13;7.53;;;;;;;24.02;100.00;100502.53;4969575;28;20190;-85
2023/09/10 07:19:30;;;;;;;8.90;8.00;;;;;;;24.09;100.00;100500.34;4973168;28;20814;-85
2023/09/10 07:21:57;;;;;;;8.77;8.07;;;;;;;24.19;100.00;100497.03;4969910;28;20200;-83
2023/09/10 07:24:22;;;;;;;9.70;8.67;;;;;;;24.15;100.00;100502.59;4964475;28;20189;-82
2023/09/10 07:26:47;;;;;;;9.07;8.27;;;;;;;24.15;100.00;100492.88;4957305;28;20190;-82
2023/09/10 07:29:16;;;;;;;8.20;7.60;;;;;;;24.35;100.00;100491.63;4969034;28;20186;-83
2023/09/10 07:31:42;;;;;;;8.07;7.37;;;;;;;24.65;100.00;100495.06;4970309;28;20214;-81
2023/09/10 07:34:08;;;;;;;8.48;7.78;;;;;;;24.82;100.00;100488.69;4972504;28;20178;-80
2023/09/10 07:36:34;;;;;;;8.50;7.28;;;;;;;24.87;100.00;100493.66;4974048;28;20177;-84
2023/09/10 07:38:59;;;;;;;7.70;7.10;;;;;;;25.02;100.00;100490.00;4967430;28;20189;-83
2023/09/10 07:41:24;;;;;;;8.40;7.65;;;;;;;25.13;100.00;100489.28;4972449;28;20289;-83
2023/09/10 07:43:50;;;;;;;7.88;7.28;;;;;;;25.22;100.00;100498.41;4973347;28;20189;-83
2023/09/10 07:46:15;;;;;;;8.02;7.30;;;;;;;25.34;99.76;100499.34;4969881;28;20190;-82
2023/09/10 07:48:41;;;;;;;8.52;7.65;;;;;;;25.30;100.00;100498.72;4972372;28;20216;-83
2023/09/10 07:51:06;;;;;;;8.18;7.47;;;;;;;25.32;100.00;100494.19;4969197;28;20228;-83
2023/09/10 07:53:32;;;;;;;8.25;7.47;;;;;;;25.35;100.00;100496.63;4966345;28;20190;-83
2023/09/10 07:55:57;;;;;;;8.23;7.43;;;;;;;25.34;100.00;100494.94;4968738;28;20244;-83
2023/09/10 07:58:23;;;;;;;9.52;8.73;;;;;;;25.11;100.00;100502.59;4971214;28;20309;-82
2023/09/10 08:00:50;;;;;;;9.50;8.70;;;;;;;25.03;100.00;100494.34;4966775;28;20560;-82
2023/09/10 08:03:15;;;;;;;8.60;7.90;;;;;;;25.05;100.00;100496.88;4969132;28;20213;-83
2023/09/10 08:05:41;;;;;;;9.60;8.90;;;;;;;24.92;100.00;100497.69;4974951;28;20185;-86
2023/09/10 08:08:07;;;;;;;9.87;8.97;;;;;;;24.72;100.00;100506.94;4971964;28;20188;-82
2023/09/10 08:10:33;;;;;;;11.23;10.23;;;;;;;24.58;100.00;100505.16;4977404;28;21333;-81
2023/09/10 08:12:59;;;;;;;11.63;10.60;;;;;;;24.10;100.00;100504.69;4967689;28;20205;-83
2023/09/10 08:15:24;;;;;;;10.37;9.43;;;;;;;24.25;100.00;100500.22;4968112;28;20736;-84
2023/09/10 08:17:54;;;;;;;10.53;9.50;;;;;;;24.36;100.00;100503.03;4965301;28;20190;-80
2023/09/10 08:20:20;;;;;;;10.57;9.60;;;;;;;24.32;100.00;100507.69;4973439;28;20222;-82
2023/09/10 08:22:46;;;;;;;10.57;9.77;;;;;;;24.17;100.00;100498.06;4961846;28;20261;-81
2023/09/10 08:25:11;;;;;;;10.30;9.30;;;;;;;24.15;100.00;100503.47;4964666;28;20177;-83
2023/09/10 08:27:37;;;;;;;10.70;9.80;;;;;;;24.18;100.00;100502.41;4964466;28;20198;-82
2023/09/10 08:30:06;;;;;;;10.07;9.27;;;;;;;24.24;100.00;100503.81;4966998;28;20189;-83
2023/09/10 08:32:35;;;;;;;11.13;10.13;;;;;;;24.31;100.00;100502.50;4972206;28;20214;-84
2023/09/10 08:35:01;;;;;;;10.27;9.47;;;;;;;24.39;100.00;100502.00;4968758;28;20193;-81
2023/09/10 08:37:26;;;;;;;9.97;9.20;;;;;;;24.49;100.00;100498.69;4971338;28;20264;-82
2023/09/10 08:39:53;;;;;;;10.10;9.10;;;;;;;24.54;100.00;100493.09;4967382;28;20204;-82
2023/09/10 08:42:58;;;;;;;10.07;9.17;;;;;;;24.63;100.00;100499.59;4976103;28;20206;-81
2023/09/10 08:45:23;;;;;;;10.10;9.20;;;;;;;24.62;100.00;100500.53;4967720;28;20194;-81
2023/09/10 08:47:52;;;;;;;11.77;10.73;;;;;;;24.35;100.00;100493.44;4967866;28;20192;-78
2023/09/10 08:50:18;;;;;;;10.67;9.67;;;;;;;24.18;100.00;100503.28;4961350;28;20224;-81
2023/09/10 08:52:48;;;;;;;10.33;9.47;;;;;;;24.14;100.00;100500.91;4975245;28;20228;-82
2023/09/10 08:55:14;;;;;;;12.33;10.73;;;;;;;24.24;100.00;100503.81;4970431;28;20225;-86
2023/09/10 08:57:40;;;;;;;11.00;10.03;;;;;;;24.32;100.00;100497.09;4968036;28;20650;-86
2023/09/10 09:00:12;;;;;;;11.10;10.00;;;;;;;24.35;100.00;100496.91;4975341;28;20194;-86
2023/09/10 09:02:41;;;;;;;10.43;9.63;;;;;;;24.29;100.00;100501.75;4970336;28;20244;-80
2023/09/10 09:05:08;;;;;;;11.13;10.13;;;;;;;24.05;100.00;100497.91;4969501;28;20205;-81
2023/09/10 09:07:44;;;;;;;10.43;9.60;;;;;;;24.33;100.00;100496.16;4982892;28;20226;-82
2023/09/10 09:10:13;;;;;;;9.17;8.47;;;;;;;24.37;100.00;100488.88;4966763;28;20284;-80
2023/09/10 09:12:41;;;;;;;10.13;9.13;;;;;;;24.42;100.00;100486.78;4971194;28;20220;-80
2023/09/10 09:15:08;;;;;;;10.33;9.43;;;;;;;24.38;100.00;100487.09;4966225;28;20648;-78
2023/09/10 09:17:37;;;;;;;9.53;8.70;;;;;;;24.17;100.00;100491.00;4963661;28;20535;-80
2023/09/10 09:20:08;;;;;;;9.10;8.40;;;;;;;24.24;100.00;100480.88;4967578;28;20218;-80
2023/09/10 09:22:34;;;;;;;9.57;8.87;;;;;;;24.33;100.00;100480.28;4966885;28;20209;-80
2023/09/10 09:25:02;;;;;;;9.67;8.87;;;;;;;24.33;100.00;100479.44;4970242;28;20199;-79
2023/09/10 09:27:28;;;;;;;9.90;9.13;;;;;;;24.27;100.00;100479.84;4966488;28;20189;-79
2023/09/10 09:29:54;;;;;;;9.53;8.63;;;;;;;24.42;100.00;100478.03;4964321;28;20206;-82
2023/09/10 09:32:19;;;;;;;9.90;9.10;;;;;;;24.36;100.00;100476.59;4968265;28;20217;-81
2023/09/10 09:34:45;;;;;;;9.40;8.63;;;;;;;24.54;100.00;100473.72;4965452;28;20812;-77
2023/09/10 09:37:10;;;;;;;10.13;9.03;;;;;;;24.59;100.00;100461.88;4962517;28;20277;-78
2023/09/10 09:39:38;;;;;;;10.03;9.03;;;;;;;24.39;100.00;100464.97;4965548;28;20227;-80
2023/09/10 09:42:04;;;;;;;9.53;8.57;;;;;;;24.31;100.00;100466.31;4968431;28;20238;-78
2023/09/10 09:44:30;;;;;;;10.27;9.30;;;;;;;24.33;100.00;100459.13;4968908;28;20229;-77
2023/09/10 09:46:57;;;;;;;9.53;8.63;;;;;;;24.31;100.00;100457.53;4966923;28;20217;-82
2023/09/10 09:49:23;;;;;;;9.20;8.30;;;;;;;24.41;100.00;100457.81;4964653;28;20285;-78
2023/09/10 09:51:48;;;;;;;9.97;9.00;;;;;;;24.70;100.00;100445.34;4965871;28;20680;-79
2023/09/10 09:54:13;;;;;;;11.73;8.80;;;;;;;24.86;100.00;100449.59;4965119;28;20247;-81
2023/09/10 09:56:43;;;;;;;9.47;8.70;;;;;;;25.03;100.00;100443.19;4969958;28;20204;-80
2023/09/10 09:59:10;;;;;;;9.17;8.27;;;;;;;25.01;96.67;100443.28;4965410;28;20207;-78
2023/09/10 10:01:36;;;;;;;8.67;7.87;;;;;;;24.95;95.06;100441.91;4986309;28;20229;-79
2023/09/10 10:04:03;;;;;;;9.23;8.30;;;;;;;24.85;97.13;100443.47;4964793;28;20193;-78
2023/09/10 10:06:28;;;;;;;10.17;7.83;;;;;;;24.88;95.50;100445.06;4967286;28;20221;-78
2023/09/10 10:08:54;;;;;;;9.87;7.80;;;;;;;24.83;93.64;100442.72;4964916;28;20214;-80
2023/09/10 10:11:31;;;;;;;8.50;7.73;;;;;;;25.07;95.08;100431.44;4962001;28;20818;-79
2023/09/10 10:13:59;;;;;;;8.77;7.87;;;;;;;25.19;95.06;100427.94;4964536;28;20182;-78
2023/09/10 10:16:27;;;;;;;7.90;7.10;;;;;;;25.46;94.11;100423.53;4967505;28;20674;-80
2023/09/10 10:18:53;;;;;;;9.00;8.20;;;;;;;25.46;93.28;100431.47;4966844;28;20221;-80
2023/09/10 10:21:21;;;;;;;8.67;7.87;;;;;;;25.53;93.31;100417.69;4961517;28;20256;-84
2023/09/10 10:23:47;;;;;;;8.47;7.40;;;;;;;25.71;93.07;100415.53;4967819;28;22240;-79
2023/09/10 10:26:15;;;;;;;7.30;6.70;;;;;;;25.99;91.97;100420.69;4960975;28;20197;-81
2023/09/10 10:28:42;;;;;;;7.97;7.30;;;;;;;26.10;91.06;100418.09;4967717;28;20185;-79
2023/09/10 10:31:12;;;;;;;8.20;7.47;;;;;;;26.09;90.29;100413.75;4985152;28;20196;-79
2023/09/10 10:33:45;;;;;;;8.87;7.90;;;;;;;25.91;88.88;100415.09;4961656;28;20293;-78
2023/09/10 10:36:18;;;;;;;7.00;6.40;;;;;;;25.70;86.28;100413.00;4965501;28;20289;-81
2023/09/10 10:38:44;;;;;;;7.37;6.57;;;;;;;25.70;82.50;100405.94;4966018;28;20270;-80
2023/09/10 10:41:24;;;;;;;7.33;6.47;;;;;;;25.72;81.43;100403.16;4963921;28;20675;-78
2023/09/10 10:44:20;;;;;;;6.63;6.13;;;;;;;25.95;81.04;100405.94;4976172;28;20186;-81
2023/09/10 10:46:51;;;;;;;6.60;6.10;;;;;;;25.85;79.55;100403.97;4971113;28;20331;-79
2023/09/10 10:49:18;;;;;;;7.43;6.77;;;;;;;25.85;80.13;100403.97;4962732;28;20195;-77
2023/09/10 10:51:47;;;;;;;6.33;5.53;;;;;;;26.00;76.67;100393.22;4963694;28;20288;-79
2023/09/10 10:54:14;;;;;;;9.17;5.87;;;;;;;26.21;78.83;100397.94;4965968;28;20273;-78
2023/09/10 10:56:40;;;;;;;6.73;6.13;;;;;;;26.19;79.49;100391.91;4960420;28;20205;-78
2023/09/10 10:59:06;;;;;;;7.30;6.60;;;;;;;26.29;78.42;100395.56;4965615;28;20189;-79
2023/09/10 11:01:32;;;;;;;6.37;5.80;;;;;;;26.26;76.21;100388.69;4963051;28;20257;-77
2023/09/10 11:03:57;;;;;;;6.80;6.20;;;;;;;26.29;77.78;100395.56;4965028;28;20189;-78
2023/09/10 11:06:22;;;;;;;8.10;6.13;;;;;;;26.35;76.34;100394.28;4965204;28;20216;-77
2023/09/10 11:08:48;;;;;;;7.70;6.93;;;;;;;26.39;78.62;100388.66;4965054;28;20214;-80
2023/09/10 11:11:32;;;;;;;6.77;6.07;;;;;;;26.44;78.81;100381.16;4965325;28;20217;-81
2023/09/10 11:14:02;;;;;;;6.73;5.83;;;;;;;26.52;76.60;100377.09;4964427;28;20197;-78
2023/09/10 11:16:31;;;;;;;6.73;6.03;;;;;;;26.65;75.82;100374.34;4962337;28;20189;-78